createdAt,value
2023-04-16T00:00:42.720Z,10.80
2023-04-16T00:04:24.625Z,10.80
2023-04-16T00:08:06.596Z,10.70
2023-04-16T00:11:48.389Z,10.60
2023-04-16T00:15:30.409Z,10.60
2023-04-16T00:19:12.347Z,10.60
2023-04-16T00:22:54.123Z,10.60
2023-04-16T00:26:36.030Z,10.60
2023-04-16T00:30:17.809Z,10.60
2023-04-16T00:34:00.383Z,10.60
2023-04-16T00:37:42.488Z,10.60
2023-04-16T00:41:24.318Z,10.50
2023-04-16T00:45:06.560Z,10.50
2023-04-16T00:48:51.054Z,10.50
2023-04-16T00:52:33.413Z,10.50
2023-04-16T00:56:17.475Z,10.50
2023-04-16T00:59:59.960Z,10.50
2023-04-16T01:03:47.158Z,10.50
2023-04-16T01:07:29.089Z,10.40
2023-04-16T01:11:12.115Z,10.40
2023-04-16T01:14:53.904Z,10.30
2023-04-16T01:18:36.756Z,10.40
2023-04-16T01:22:18.572Z,10.40
2023-04-16T01:26:00.566Z,10.40
2023-04-16T01:29:42.357Z,10.40
2023-04-16T01:33:24.216Z,10.30
2023-04-16T01:37:06.163Z,10.30
2023-04-16T01:40:47.896Z,10.30
2023-04-16T01:44:30.950Z,10.30
2023-04-16T01:48:12.884Z,10.20
2023-04-16T01:51:54.620Z,10.20
2023-04-16T01:55:36.417Z,10.10
2023-04-16T01:59:18.528Z,10.10
2023-04-16T02:03:00.570Z,10.10
2023-04-16T02:06:42.428Z,10.10
2023-04-16T02:10:24.205Z,10.10
2023-04-16T02:14:06.083Z,10.00
2023-04-16T02:17:48.922Z,10.00
2023-04-16T02:21:31.861Z,10.00
2023-04-16T02:25:14.316Z,10.00
2023-04-16T02:28:56.157Z,10.00
2023-04-16T02:32:37.930Z,10.10
2023-04-16T02:36:20.029Z,10.00
2023-04-16T02:40:01.842Z,10.00
2023-04-16T02:43:43.610Z,10.00
2023-04-16T02:47:25.388Z,9.90
2023-04-16T02:51:07.227Z,9.90
2023-04-16T02:54:49.047Z,9.90
2023-04-16T02:58:30.822Z,9.90
2023-04-16T03:02:13.931Z,9.90
2023-04-16T03:05:55.748Z,9.90
2023-04-16T03:09:37.511Z,9.90
2023-04-16T03:13:19.222Z,9.80
2023-04-16T03:17:01.559Z,9.80
2023-04-16T03:20:43.385Z,9.90
2023-04-16T03:24:25.135Z,9.80
2023-04-16T03:28:06.891Z,9.90
2023-04-16T03:31:48.623Z,9.90
2023-04-16T03:35:30.463Z,9.90
2023-04-16T03:39:12.333Z,9.90
2023-04-16T03:42:54.098Z,9.90
2023-04-16T03:46:36.076Z,9.80
2023-04-16T03:50:19.033Z,9.80
2023-04-16T03:54:00.760Z,9.80
2023-04-16T03:57:42.523Z,9.80
2023-04-16T04:01:24.288Z,9.80
2023-04-16T04:05:06.393Z,9.90
2023-04-16T04:08:48.196Z,9.80
2023-04-16T04:12:29.895Z,9.80
2023-04-16T04:16:11.783Z,9.80
2023-04-16T04:20:00.968Z,9.80
2023-04-16T04:23:43.763Z,9.80
2023-04-16T04:27:25.623Z,9.80
2023-04-16T04:31:07.477Z,9.80
2023-04-16T04:34:49.201Z,9.90
2023-04-16T04:38:31.359Z,9.90
2023-04-16T04:42:13.116Z,9.90
2023-04-16T04:45:54.964Z,9.90
2023-04-16T04:49:36.789Z,9.80
2023-04-16T04:53:18.556Z,9.90
2023-04-16T04:57:00.309Z,9.90
2023-04-16T05:00:42.950Z,9.90
2023-04-16T05:04:24.706Z,9.90
2023-04-16T05:08:06.591Z,9.90
2023-04-16T05:11:48.309Z,9.90
2023-04-16T05:15:30.367Z,9.90
2023-04-16T05:19:12.289Z,9.90
2023-04-16T05:22:55.407Z,10.00
2023-04-16T05:26:37.168Z,10.00
2023-04-16T05:30:19.143Z,10.00
2023-04-16T05:34:01.231Z,10.00
2023-04-16T05:37:43.192Z,10.10
2023-04-16T05:41:25.076Z,10.10
2023-04-16T05:45:07.357Z,10.00
2023-04-16T05:48:49.051Z,10.00
2023-04-16T05:52:30.800Z,10.00
2023-04-16T05:56:12.539Z,10.10
2023-04-16T05:59:54.328Z,10.10
2023-04-16T06:03:36.161Z,10.10
2023-04-16T06:07:17.995Z,10.10
2023-04-16T06:10:59.914Z,10.20
2023-04-16T06:14:41.746Z,10.20
2023-04-16T06:18:23.781Z,10.30
2023-04-16T06:22:06.573Z,10.30
2023-04-16T06:25:48.271Z,10.40
2023-04-16T06:29:40.505Z,10.40
2023-04-16T06:33:23.512Z,10.50
2023-04-16T06:37:05.312Z,10.50
2023-04-16T06:40:48.344Z,10.60
2023-04-16T06:44:30.211Z,10.60
2023-04-16T06:48:11.996Z,10.60
2023-04-16T06:51:54.106Z,10.70
2023-04-16T06:55:35.927Z,10.80
2023-04-16T06:59:17.712Z,10.80
2023-04-16T07:03:01.700Z,10.90
2023-04-16T07:06:43.822Z,11.00
2023-04-16T07:10:25.755Z,11.00
2023-04-16T07:14:07.869Z,11.10
2023-04-16T07:17:49.718Z,11.20
2023-04-16T07:21:31.887Z,11.20
2023-04-16T07:25:13.717Z,11.30
2023-04-16T07:28:55.513Z,11.40
2023-04-16T07:32:37.404Z,11.40
2023-04-16T07:36:19.183Z,11.50
2023-04-16T07:40:01.040Z,11.50
2023-04-16T07:43:42.811Z,11.60
2023-04-16T07:47:26.464Z,11.60
2023-04-16T07:51:08.279Z,11.70
2023-04-16T07:54:51.736Z,11.70
2023-04-16T07:58:33.519Z,11.80
2023-04-16T08:02:16.878Z,11.80
2023-04-16T08:05:58.996Z,11.90
2023-04-16T08:09:51.714Z,12.00
2023-04-16T08:13:33.742Z,12.00
2023-04-16T08:17:16.165Z,12.00
2023-04-16T08:20:57.980Z,12.10
2023-04-16T08:24:40.157Z,12.20
2023-04-16T08:28:21.925Z,12.20
2023-04-16T08:32:03.788Z,12.40
2023-04-16T08:35:45.948Z,12.50
2023-04-16T08:39:27.658Z,12.60
2023-04-16T08:43:14.763Z,12.80
2023-04-16T08:46:58.256Z,12.70
2023-04-16T08:50:41.921Z,12.80
2023-04-16T08:54:32.306Z,12.80
2023-04-16T08:58:15.453Z,12.80
2023-04-16T09:01:59.592Z,12.80
2023-04-16T09:05:43.039Z,12.80
2023-04-16T09:09:26.661Z,12.70
2023-04-16T09:13:11.731Z,12.80
2023-04-16T09:16:55.793Z,12.90
2023-04-16T09:20:37.961Z,13.00
2023-04-16T09:24:19.844Z,13.10
2023-04-16T09:28:01.856Z,13.20
2023-04-16T09:32:05.615Z,13.30
2023-04-16T09:35:54.284Z,13.40
2023-04-16T09:39:36.381Z,13.40
2023-04-16T09:43:19.068Z,13.50
2023-04-16T09:47:09.234Z,13.50
2023-04-16T09:50:51.617Z,13.50
2023-04-16T09:54:33.360Z,13.60
2023-04-16T09:58:19.325Z,13.70
2023-04-16T10:02:15.392Z,13.70
2023-04-16T10:06:08.230Z,13.60
2023-04-16T10:09:50.649Z,13.70
2023-04-16T10:13:32.539Z,13.60
2023-04-16T10:17:15.310Z,13.70
2023-04-16T10:20:57.973Z,13.70
2023-04-16T10:24:41.876Z,13.80
2023-04-16T10:28:25.108Z,13.80
2023-04-16T10:32:07.904Z,13.90
2023-04-16T10:36:07.760Z,13.90
2023-04-16T10:39:53.093Z,13.90
2023-04-16T10:43:49.574Z,14.00
2023-04-16T10:47:31.762Z,14.10
2023-04-16T10:51:33.572Z,14.20
2023-04-16T10:55:18.320Z,14.30
2023-04-16T10:59:00.107Z,14.30
2023-04-16T11:02:42.049Z,14.40
2023-04-16T11:06:28.311Z,14.50
2023-04-16T11:10:13.639Z,14.70
2023-04-16T11:13:56.978Z,14.80
2023-04-16T11:17:40.099Z,14.80
2023-04-16T11:21:22.468Z,14.80
2023-04-16T11:25:04.538Z,14.70
2023-04-16T11:28:46.394Z,14.80
2023-04-16T11:32:31.189Z,14.80
2023-04-16T11:36:12.997Z,14.90
2023-04-16T11:39:54.730Z,15.00
2023-04-16T11:43:36.922Z,15.10
2023-04-16T11:47:18.741Z,15.30
2023-04-16T11:51:00.614Z,15.40
2023-04-16T11:54:42.382Z,15.50
2023-04-16T11:58:24.333Z,15.50
2023-04-16T12:02:06.545Z,15.50
2023-04-16T12:05:48.311Z,15.40
2023-04-16T12:09:30.061Z,15.40
2023-04-16T12:13:16.371Z,15.40
2023-04-16T12:17:18.245Z,15.40
2023-04-16T12:21:04.461Z,15.50
2023-04-16T12:24:46.205Z,15.60
2023-04-16T12:28:34.928Z,15.60
2023-04-16T12:32:23.483Z,15.60
2023-04-16T12:36:26.248Z,15.70
2023-04-16T12:40:08.703Z,15.70
2023-04-16T12:43:50.618Z,15.70
2023-04-16T12:47:33.164Z,15.80
2023-04-16T12:51:15.310Z,15.70
2023-04-16T12:54:57.220Z,15.80
2023-04-16T12:58:38.955Z,15.80
2023-04-16T13:02:20.920Z,15.80
2023-04-16T13:06:03.503Z,15.80
2023-04-16T13:09:46.634Z,15.90
2023-04-16T13:13:29.620Z,16.00
2023-04-16T13:17:11.529Z,16.00
2023-04-16T13:20:54.009Z,16.00
2023-04-16T13:24:35.898Z,16.00
2023-04-16T13:28:17.683Z,16.10
2023-04-16T13:31:59.473Z,16.10
2023-04-16T13:35:41.257Z,16.20
2023-04-16T13:39:23.121Z,16.30
2023-04-16T13:43:05.986Z,16.40
2023-04-16T13:46:49.735Z,16.50
2023-04-16T13:50:31.743Z,16.40
2023-04-16T13:54:13.492Z,16.30
2023-04-16T13:57:56.389Z,16.30
2023-04-16T14:01:38.336Z,16.40
2023-04-16T14:05:20.140Z,16.40
2023-04-16T14:09:02.126Z,16.40
2023-04-16T14:12:45.280Z,16.30
2023-04-16T14:16:27.606Z,16.30
2023-04-16T14:20:13.075Z,16.30
2023-04-16T14:23:54.839Z,16.30
2023-04-16T14:27:36.686Z,16.30
2023-04-16T14:31:19.873Z,16.40
2023-04-16T14:35:01.799Z,16.40
2023-04-16T14:38:43.873Z,16.40
2023-04-16T14:42:26.328Z,16.50
2023-04-16T14:46:08.305Z,16.40
2023-04-16T14:49:50.259Z,16.50
2023-04-16T14:53:32.155Z,16.50
2023-04-16T14:57:14.281Z,16.40
2023-04-16T15:00:56.350Z,16.30
2023-04-16T15:04:38.442Z,16.20
2023-04-16T15:08:20.243Z,16.20
2023-04-16T15:12:02.048Z,16.10
2023-04-16T15:15:43.905Z,16.20
2023-04-16T15:19:26.075Z,16.10
2023-04-16T15:23:07.953Z,16.10
2023-04-16T15:26:49.752Z,16.10
2023-04-16T15:30:31.608Z,16.00
2023-04-16T15:34:13.505Z,15.90
2023-04-16T15:37:55.423Z,16.00
2023-04-16T15:41:50.199Z,16.00
2023-04-16T15:45:41.365Z,16.00
2023-04-16T15:49:24.721Z,15.90
2023-04-16T15:53:06.558Z,16.00
2023-04-16T15:56:48.573Z,16.00
2023-04-16T16:00:30.552Z,15.90
2023-04-16T16:04:12.470Z,15.90
2023-04-16T16:07:54.289Z,15.80
2023-04-16T16:11:38.996Z,15.80
2023-04-16T16:15:20.970Z,15.90
2023-04-16T16:19:02.835Z,15.90
2023-04-16T16:22:46.809Z,15.90
2023-04-16T16:26:29.033Z,15.90
2023-04-16T16:30:11.272Z,15.90
2023-04-16T16:33:53.013Z,15.90
2023-04-16T16:37:35.633Z,15.90
2023-04-16T16:41:17.634Z,15.90
2023-04-16T16:44:59.413Z,15.90
2023-04-16T16:48:41.221Z,15.90
2023-04-16T16:52:24.081Z,15.90
2023-04-16T16:56:06.207Z,15.80
2023-04-16T16:59:48.617Z,15.80
2023-04-16T17:03:30.515Z,15.80
2023-04-16T17:07:15.278Z,15.80
2023-04-16T17:10:57.122Z,15.80
2023-04-16T17:14:39.493Z,15.80
2023-04-16T17:18:21.322Z,15.80
2023-04-16T17:22:03.363Z,15.70
2023-04-16T17:25:45.312Z,15.60
2023-04-16T17:29:27.049Z,15.60
2023-04-16T17:33:08.952Z,15.60
2023-04-16T17:36:50.776Z,15.50
2023-04-16T17:40:32.547Z,15.50
2023-04-16T17:44:14.504Z,15.50
2023-04-16T17:47:56.489Z,15.40
2023-04-16T17:51:38.311Z,15.40
2023-04-16T17:55:20.196Z,15.40
2023-04-16T17:59:02.186Z,15.30
2023-04-16T18:02:44.256Z,15.30
2023-04-16T18:06:27.575Z,15.30
2023-04-16T18:10:09.948Z,15.20
2023-04-16T18:13:53.784Z,15.20
2023-04-16T18:17:35.708Z,15.10
2023-04-16T18:21:17.515Z,15.00
2023-04-16T18:24:59.474Z,15.00
2023-04-16T18:28:41.653Z,15.00
2023-04-16T18:32:24.469Z,15.00
2023-04-16T18:36:06.650Z,14.90
2023-04-16T18:39:48.653Z,14.90
2023-04-16T18:43:31.084Z,14.80
2023-04-16T18:47:12.893Z,14.80
2023-04-16T18:50:54.806Z,14.70
2023-04-16T18:54:36.726Z,14.70
2023-04-16T18:58:18.429Z,14.70
2023-04-16T19:02:00.310Z,14.60
2023-04-16T19:05:42.042Z,14.60
2023-04-16T19:09:25.359Z,14.60
2023-04-16T19:13:07.146Z,14.60
2023-04-16T19:16:48.896Z,14.50
2023-04-16T19:20:33.436Z,14.50
2023-04-16T19:24:15.263Z,14.50
2023-04-16T19:27:57.125Z,14.40
2023-04-16T19:31:38.949Z,14.40
2023-04-16T19:35:20.668Z,14.30
2023-04-16T19:39:02.410Z,14.30
2023-04-16T19:42:45.397Z,14.30
2023-04-16T19:46:27.313Z,14.30
2023-04-16T19:50:09.513Z,14.20
2023-04-16T19:53:51.964Z,14.30
2023-04-16T19:57:33.862Z,14.20
2023-04-16T20:01:15.709Z,14.20
2023-04-16T20:04:57.511Z,14.10
2023-04-16T20:08:39.279Z,14.10
2023-04-16T20:12:21.178Z,14.00
2023-04-16T20:16:04.072Z,14.00
2023-04-16T20:19:47.464Z,14.00
2023-04-16T20:23:29.268Z,14.00
2023-04-16T20:27:11.020Z,14.00
2023-04-16T20:30:52.926Z,13.90
2023-04-16T20:34:34.723Z,13.90
2023-04-16T20:38:18.269Z,13.80
2023-04-16T20:42:00.916Z,13.80
2023-04-16T20:45:46.176Z,13.80
2023-04-16T20:49:27.951Z,13.80
2023-04-16T20:53:09.715Z,13.80
2023-04-16T20:56:51.515Z,13.70
2023-04-16T21:00:33.328Z,13.70
2023-04-16T21:04:15.128Z,13.70
2023-04-16T21:07:56.917Z,13.60
2023-04-16T21:11:38.688Z,13.60
2023-04-16T21:19:19.676Z,13.60
2023-04-16T21:23:05.180Z,13.70
2023-04-16T21:26:46.899Z,13.70
2023-04-16T21:30:28.731Z,13.70
2023-04-16T21:34:10.654Z,13.70
2023-04-16T21:37:52.442Z,13.60
2023-04-16T21:41:34.478Z,13.60
2023-04-16T21:45:17.970Z,13.60
2023-04-16T21:48:59.749Z,13.60
2023-04-16T21:52:46.298Z,13.60
2023-04-16T21:56:28.040Z,13.60
2023-04-16T22:00:13.907Z,13.60
2023-04-16T22:03:55.845Z,13.50
2023-04-16T22:07:37.844Z,13.50
2023-04-16T22:11:19.582Z,13.50
2023-04-16T22:15:03.139Z,13.40
2023-04-16T22:18:46.319Z,13.40
2023-04-16T22:22:28.187Z,13.50
2023-04-16T22:26:10.178Z,13.40
2023-04-16T22:29:52.044Z,13.40
2023-04-16T22:33:33.853Z,13.30
2023-04-16T22:37:15.950Z,13.30
2023-04-16T22:40:57.718Z,13.30
2023-04-16T22:44:39.714Z,13.30
2023-04-16T22:48:21.423Z,13.30
2023-04-16T22:52:03.255Z,13.30
2023-04-16T22:55:45.021Z,13.30
2023-04-16T22:59:26.812Z,13.30
2023-04-16T23:03:09.041Z,13.30
2023-04-16T23:06:51.468Z,13.30
2023-04-16T23:10:33.249Z,13.20
2023-04-16T23:14:16.828Z,13.20
2023-04-16T23:17:58.775Z,13.20
2023-04-16T23:21:41.451Z,13.20
2023-04-16T23:25:23.629Z,13.20
2023-04-16T23:29:05.413Z,13.20
2023-04-16T23:32:47.141Z,13.20
2023-04-16T23:36:28.910Z,13.10
2023-04-16T23:40:11.034Z,13.10
2023-04-16T23:43:52.760Z,13.10
2023-04-16T23:47:34.532Z,13.10
2023-04-16T23:51:16.357Z,13.10
2023-04-16T23:54:58.094Z,13.10
2023-04-16T23:58:39.842Z,13.10
